Time;durP1;ratioP1;P1;durP2;ratioP2;P2;SDS_P1;SDS_P2;PMS_P1;PMS_P2;Temp;Humidity;BMP_temperature;BMP_pressure;BME280_temperature;BME280_humidity;BME280_pressure;Samples;Min_cycle;Max_cycle;Signal;HPM_P1;HPM_P2
2020/12/25 00:01:55;;;;;;;;;36.67;28.33;;;;;5.95;95.10;99085.69;4929270;29;8880;-50
2020/12/25 00:04:21;;;;;;;;;30.67;26.33;;;;;5.83;94.43;99097.81;4936841;29;9631;-53
2020/12/25 00:06:48;;;;;;;;;31.00;24.33;;;;;5.88;95.53;99087.75;4936602;28;8845;-53
2020/12/25 00:09:15;;;;;;;;;33.00;29.00;;;;;5.96;94.72;99083.88;4943104;28;8878;-54
2020/12/25 00:11:43;;;;;;;;;27.33;23.00;;;;;5.95;95.35;99085.69;4938106;29;8875;-54
2020/12/25 00:14:11;;;;;;;;;32.67;26.00;;;;;6.08;94.68;99084.09;4930774;28;8922;-53
2020/12/25 00:16:39;;;;;;;;;27.67;23.33;;;;;5.86;94.06;99078.97;4936413;29;8845;-54
2020/12/25 00:19:06;;;;;;;;;34.33;22.67;;;;;5.90;95.40;99085.88;4942511;29;8885;-54
2020/12/25 00:21:33;;;;;;;;;26.00;22.00;;;;;5.98;95.05;99097.97;4927199;29;9040;-52
2020/12/25 00:23:59;;;;;;;;;33.00;19.00;;;;;5.95;94.51;99091.03;4935777;29;8856;-53
2020/12/25 00:26:29;;;;;;;;;36.33;27.33;;;;;5.97;94.25;99086.44;4935717;29;8860;-52
2020/12/25 00:28:58;;;;;;;;;25.00;20.33;;;;;5.96;94.61;99084.75;4935906;29;8916;-52
2020/12/25 00:31:34;;;;;;;;;34.67;26.00;;;;;5.73;95.55;99084.09;4936052;29;8860;-53
2020/12/25 00:34:04;;;;;;;;;28.33;21.33;;;;;5.93;94.87;99083.09;4943649;29;8881;-52
2020/12/25 00:36:37;;;;;;;;;36.00;26.00;;;;;6.07;94.54;99076.19;4936308;29;8849;-55
2020/12/25 00:39:13;;;;;;;;;35.33;23.00;;;;;5.91;94.97;99076.94;4942507;29;8987;-53
2020/12/25 00:41:45;;;;;;;;;37.67;25.33;;;;;5.90;94.95;99069.91;4937872;29;8859;-54
2020/12/25 00:44:12;;;;;;;;;27.67;22.00;;;;;5.79;95.32;99074.06;4934213;29;8961;-54
2020/12/25 00:46:40;;;;;;;;;26.33;22.67;;;;;5.67;95.15;99078.22;4935807;28;8905;-50
2020/12/25 00:49:08;;;;;;;;;30.67;25.00;;;;;5.74;95.64;99087.63;4936484;29;8897;-50
2020/12/25 00:51:35;;;;;;;;;29.67;21.67;;;;;5.71;95.47;99098.41;4936233;28;8880;-54
2020/12/25 00:54:02;;;;;;;;;31.67;28.67;;;;;5.91;95.14;99097.41;4936628;28;8841;-56
2020/12/25 00:56:29;;;;;;;;;34.00;22.00;;;;;5.71;94.61;99101.09;4941696;29;8925;-54
2020/12/25 00:58:56;;;;;;;;;25.33;22.33;;;;;5.87;95.72;99101.16;4935427;29;8911;-52
2020/12/25 01:01:23;;;;;;;;;28.33;25.67;;;;;5.85;95.32;99087.06;4935694;29;8852;-54
2020/12/25 01:03:50;;;;;;;;;23.67;21.33;;;;;5.73;94.60;99093.88;4935750;29;8884;-54
2020/12/25 01:06:19;;;;;;;;;33.00;23.67;;;;;5.79;95.36;99093.56;4938013;29;9624;-53
2020/12/25 01:08:49;;;;;;;;;28.00;24.33;;;;;5.64;95.61;99089.03;4935556;29;8974;-55
2020/12/25 01:11:17;;;;;;;;;34.00;22.67;;;;;5.91;94.91;99084.94;4935381;29;8859;-55
2020/12/25 01:13:45;;;;;;;;;29.00;23.00;;;;;5.70;94.52;99091.38;4936447;28;8878;-55
2020/12/25 01:16:15;;;;;;;;;27.00;20.67;;;;;5.60;95.40;99083.00;4935263;29;8869;-52
2020/12/25 01:18:45;;;;;;;;;30.00;18.67;;;;;5.58;95.33;99076.00;4934626;29;8895;-52
2020/12/25 01:21:12;;;;;;;;;32.00;25.00;;;;;5.55;96.25;99079.69;4939731;29;8849;-52
2020/12/25 01:23:40;;;;;;;;;26.67;21.67;;;;;5.67;95.28;99083.56;4935522;29;8863;-54
2020/12/25 01:26:08;;;;;;;;;33.33;26.67;;;;;5.65;96.00;99088.09;4935019;29;8859;-53
2020/12/25 01:28:36;;;;;;;;;34.33;25.33;;;;;5.69;94.78;99092.34;4935234;29;8891;-54
2020/12/25 01:31:04;;;;;;;;;20.33;16.00;;;;;5.60;95.50;99098.97;4934229;29;8883;-54
2020/12/25 01:33:36;;;;;;;;;26.67;22.67;;;;;5.60;96.03;99100.78;4954601;28;8879;-50
2020/12/25 01:36:04;;;;;;;;;33.00;25.00;;;;;5.60;95.90;99106.09;4940310;28;8838;-53
2020/12/25 01:38:32;;;;;;;;;28.00;22.00;;;;;5.60;95.35;99098.09;4941086;29;8891;-51
2020/12/25 01:41:00;;;;;;;;;26.67;21.33;;;;;5.56;94.97;99101.88;4934838;29;8951;-55
2020/12/25 01:43:27;;;;;;;;;38.67;29.33;;;;;5.61;95.87;99110.47;4918293;29;8860;-54
2020/12/25 01:45:53;;;;;;;;;28.33;20.33;;;;;5.72;95.64;99103.69;4934825;29;8925;-49
2020/12/25 01:48:21;;;;;;;;;30.67;26.00;;;;;5.61;95.50;99110.47;4939027;28;8948;-55
2020/12/25 01:50:51;;;;;;;;;39.33;28.33;;;;;5.61;95.43;99110.47;4918669;29;8861;-52
2020/12/25 01:53:22;;;;;;;;;38.33;26.00;;;;;5.59;95.80;99107.06;4918027;29;8860;-55
2020/12/25 01:55:50;;;;;;;;;54.33;41.67;;;;;5.50;95.65;99108.34;4936509;29;8867;-53
2020/12/25 01:58:18;;;;;;;;;36.00;29.00;;;;;5.57;96.07;99108.91;4934151;29;8872;-55
2020/12/25 02:00:47;;;;;;;;;61.67;40.00;;;;;5.50;95.68;99108.34;4931921;29;8924;-50
2020/12/25 02:03:17;;;;;;;;;46.00;33.00;;;;;5.57;95.50;99108.91;4935552;29;8852;-54
2020/12/25 02:05:45;;;;;;;;;41.67;32.00;;;;;5.69;96.18;99110.97;4942832;28;8968;-51
2020/12/25 02:08:13;;;;;;;;;54.00;42.00;;;;;5.50;95.50;99106.56;4936358;28;8879;-55
2020/12/25 02:10:41;;;;;;;;;45.67;33.00;;;;;5.60;95.07;99104.28;4934884;29;8853;-52
2020/12/25 02:13:09;;;;;;;;;39.67;33.67;;;;;5.50;95.26;99122.56;4934369;29;8852;-51
2020/12/25 02:15:37;;;;;;;;;36.33;31.33;;;;;5.64;95.56;99105.03;4934548;29;8871;-54
2020/12/25 02:18:06;;;;;;;;;61.00;43.33;;;;;5.48;95.38;99105.78;4934331;29;8871;-52
2020/12/25 02:20:33;;;;;;;;;45.67;35.67;;;;;5.61;95.66;99103.38;4934269;28;8971;-54
2020/12/25 02:23:00;;;;;;;;;36.33;29.33;;;;;5.49;95.31;99103.97;4937988;28;8866;-54
2020/12/25 02:25:27;;;;;;;;;30.00;26.67;;;;;5.57;96.06;99093.81;4935440;29;8871;-55
2020/12/25 02:27:53;;;;;;;;;41.67;32.33;;;;;5.54;95.26;99087.78;4936092;28;8893;-50
2020/12/25 02:30:21;;;;;;;;;38.67;30.33;;;;;5.43;95.42;99091.00;4933666;29;8855;-51
2020/12/25 02:32:49;;;;;;;;;33.67;24.67;;;;;5.44;96.30;99093.56;4933791;29;8879;-55
2020/12/25 02:35:16;;;;;;;;;35.00;30.00;;;;;5.44;95.13;99098.88;4927474;29;8879;-54
2020/12/25 02:37:43;;;;;;;;;39.00;24.33;;;;;5.47;95.77;99104.03;4931154;29;8857;-55
2020/12/25 02:40:11;;;;;;;;;33.00;21.33;;;;;5.55;95.75;99105.47;4933176;29;8845;-52
2020/12/25 02:42:38;;;;;;;;;29.67;21.00;;;;;5.56;94.89;99101.88;4934108;28;8909;-50
2020/12/25 02:45:06;;;;;;;;;27.33;23.67;;;;;5.51;95.40;99102.09;4934025;29;8896;-52
2020/12/25 02:47:34;;;;;;;;;35.33;22.33;;;;;5.64;95.71;99095.22;4939898;28;8854;-53
2020/12/25 02:50:00;;;;;;;;;32.67;27.33;;;;;5.75;94.97;99097.34;4934374;29;8870;-54
2020/12/25 02:52:27;;;;;;;;;27.33;21.00;;;;;5.72;95.10;99108.16;4933408;28;8866;-53
2020/12/25 02:54:54;;;;;;;;;30.67;24.33;;;;;5.47;95.19;99098.72;4934992;28;9008;-53
2020/12/25 02:57:21;;;;;;;;;36.67;27.00;;;;;5.45;95.65;99111.28;4936752;29;8886;-50
2020/12/25 02:59:48;;;;;;;;;38.33;26.00;;;;;5.65;95.77;99109.41;4933838;29;8847;-52
2020/12/25 03:02:16;;;;;;;;;36.00;29.00;;;;;5.44;95.47;99106.88;4933602;29;8872;-53
2020/12/25 03:04:45;;;;;;;;;37.33;27.00;;;;;5.62;95.92;99105.09;4935264;29;8897;-55
2020/12/25 03:07:13;;;;;;;;;40.67;35.00;;;;;5.62;95.56;99101.56;4939850;29;8957;-54
2020/12/25 03:09:40;;;;;;;;;56.33;43.67;;;;;5.52;95.02;99110.94;4924994;29;8867;-52
2020/12/25 03:12:08;;;;;;;;;31.67;25.00;;;;;5.48;95.70;99108.44;4939880;29;8892;-52
2020/12/25 03:14:35;;;;;;;;;29.00;25.67;;;;;5.57;94.81;99111.59;4943552;28;8866;-53
2020/12/25 03:17:03;;;;;;;;;45.33;34.00;;;;;5.54;95.63;99099.28;4940272;29;8948;-52
2020/12/25 03:19:29;;;;;;;;;35.33;30.00;;;;;5.48;95.37;99100.47;4926157;29;8867;-53
2020/12/25 03:21:57;;;;;;;;;39.00;27.33;;;;;5.50;95.18;99092.38;4939646;29;8891;-55
2020/12/25 03:24:24;;;;;;;;;33.33;26.33;;;;;5.44;94.76;99106.00;4940342;29;8974;-53
2020/12/25 03:26:50;;;;;;;;;39.33;29.33;;;;;5.38;95.05;99093.88;4939339;29;8864;-52
2020/12/25 03:29:17;;;;;;;;;39.67;31.33;;;;;5.31;96.13;99100.44;4939699;29;8868;-54
2020/12/25 03:31:44;;;;;;;;;32.67;29.00;;;;;5.42;95.28;99106.06;4939719;29;8896;-55
2020/12/25 03:34:11;;;;;;;;;27.67;25.00;;;;;5.33;95.63;99106.53;4939938;28;8947;-52
2020/12/25 03:36:38;;;;;;;;;32.00;25.00;;;;;5.36;95.16;99103.72;4937313;29;8857;-53
2020/12/25 03:39:05;;;;;;;;;26.00;23.00;;;;;5.36;95.35;99106.38;4939728;29;8881;-52
2020/12/25 03:41:33;;;;;;;;;30.67;28.00;;;;;5.42;95.01;99106.06;4939738;29;8915;-53
2020/12/25 03:43:59;;;;;;;;;29.33;25.00;;;;;5.44;95.38;99103.34;4942487;29;8873;-50
2020/12/25 03:46:36;;;;;;;;;28.67;24.33;;;;;5.33;95.90;99105.69;4939755;29;8883;-54
2020/12/25 03:49:07;;;;;;;;;28.33;23.33;;;;;5.41;95.43;99103.50;4939731;29;8852;-52
2020/12/25 03:51:34;;;;;;;;;30.33;23.33;;;;;5.35;95.07;99095.84;4939484;29;8880;-52
2020/12/25 03:54:01;;;;;;;;;35.00;27.33;;;;;5.28;94.89;99098.78;4938980;29;9017;-49
2020/12/25 03:56:29;;;;;;;;;31.00;23.33;;;;;5.24;94.99;99107.88;4939820;29;8962;-52
2020/12/25 03:58:56;;;;;;;;;29.00;24.00;;;;;5.23;95.02;99102.59;4942810;28;8862;-49
2020/12/25 04:01:24;;;;;;;;;33.00;25.67;;;;;5.30;95.87;99095.19;4938470;29;8858;-52
2020/12/25 04:03:50;;;;;;;;;27.00;23.00;;;;;5.26;96.01;99094.47;4938884;29;8863;-54
2020/12/25 04:06:17;;;;;;;;;32.33;23.00;;;;;5.30;95.48;99096.06;4939208;28;9815;-56
2020/12/25 04:08:45;;;;;;;;;30.33;25.00;;;;;5.22;95.40;99092.91;4945494;28;8899;-53
2020/12/25 04:11:12;;;;;;;;;25.00;21.67;;;;;5.11;95.47;99095.22;4939650;29;8909;-54
2020/12/25 04:13:40;;;;;;;;;30.33;24.00;;;;;5.16;96.11;99095.84;4939732;28;8963;-51
2020/12/25 04:16:07;;;;;;;;;31.00;21.33;;;;;5.07;96.06;99095.38;4938975;29;8868;-55
2020/12/25 04:18:34;;;;;;;;;31.00;24.33;;;;;4.94;96.52;99088.91;4935511;29;9679;-52
2020/12/25 04:21:01;;;;;;;;;30.33;27.33;;;;;4.98;96.02;99087.84;4938549;28;8869;-56
2020/12/25 04:23:28;;;;;;;;;29.67;22.67;;;;;4.91;96.41;99088.22;4935797;29;8892;-55
2020/12/25 04:25:55;;;;;;;;;31.00;23.33;;;;;4.82;96.62;99094.84;4936096;28;8894;-55
2020/12/25 04:28:23;;;;;;;;;32.00;26.33;;;;;4.79;97.41;99100.28;4942292;29;8871;-54
2020/12/25 04:30:50;;;;;;;;;32.00;21.67;;;;;4.78;97.35;99094.13;4935950;29;8858;-53
2020/12/25 04:33:17;;;;;;;;;28.67;24.00;;;;;4.65;96.70;99097.44;4932757;29;8887;-51
2020/12/25 04:35:43;;;;;;;;;35.33;24.00;;;;;4.73;97.60;99095.28;4940324;29;8857;-54
2020/12/25 04:38:11;;;;;;;;;24.33;21.00;;;;;4.71;97.38;99091.81;4935584;28;8876;-53
2020/12/25 04:40:40;;;;;;;;;25.00;22.00;;;;;4.92;97.13;99100.56;4935953;29;8853;-54
2020/12/25 04:43:08;;;;;;;;;27.67;21.33;;;;;4.83;96.93;99094.75;4935901;29;8871;-53
2020/12/25 04:45:35;;;;;;;;;20.33;17.67;;;;;5.15;96.40;99096.81;4919808;29;8872;-53
2020/12/25 04:48:02;;;;;;;;;17.33;16.00;;;;;5.02;96.08;99088.56;4935747;29;8864;-51
2020/12/25 04:50:29;;;;;;;;;22.33;17.33;;;;;4.88;96.17;99083.91;4936334;29;8985;-52
2020/12/25 04:52:57;;;;;;;;;21.67;19.67;;;;;4.95;96.28;99079.13;4944095;29;8847;-52
2020/12/25 04:55:24;;;;;;;;;21.33;15.33;;;;;4.97;96.45;99080.78;4919099;29;8934;-53
2020/12/25 04:57:53;;;;;;;;;27.00;21.33;;;;;5.01;95.24;99095.69;4935565;29;8855;-55
2020/12/25 05:00:21;;;;;;;;;19.33;17.67;;;;;5.15;95.39;99092.34;4919079;29;9628;-51
2020/12/25 05:02:50;;;;;;;;;22.67;18.00;;;;;5.06;94.69;99084.81;4922295;28;8869;-54
2020/12/25 05:05:30;;;;;;;;;26.00;22.00;;;;;4.97;95.75;99091.44;4940281;29;8882;-55
2020/12/25 05:08:00;;;;;;;;;21.33;15.00;;;;;4.95;95.73;99090.66;4935567;29;8876;-54
2020/12/25 05:10:28;;;;;;;;;25.33;19.67;;;;;5.09;95.83;99087.31;4928537;29;8866;-53
2020/12/25 05:12:55;;;;;;;;;29.33;22.33;;;;;4.96;94.51;99092.38;4935285;29;8939;-52
2020/12/25 05:15:22;;;;;;;;;29.33;23.33;;;;;5.14;94.82;99097.75;4935075;29;8917;-54
2020/12/25 05:17:56;;;;;;;;;29.33;19.33;;;;;5.07;94.17;99098.03;4919040;29;8988;-54
2020/12/25 05:20:24;;;;;;;;;20.33;18.33;;;;;4.96;94.81;99096.84;4935107;29;8890;-54
2020/12/25 05:22:51;;;;;;;;;31.67;25.33;;;;;4.99;94.84;99092.22;4935299;29;8890;-55
2020/12/25 05:25:20;;;;;;;;;27.00;21.00;;;;;5.05;94.85;99097.28;4934681;29;8980;-51
2020/12/25 05:27:47;;;;;;;;;26.00;19.67;;;;;5.08;93.59;99093.56;4936376;29;8854;-53
2020/12/25 05:30:15;;;;;;;;;45.33;25.67;;;;;4.98;94.55;99103.81;4934344;29;8857;-55
2020/12/25 05:32:44;;;;;;;;;26.00;22.67;;;;;5.02;93.91;99091.22;4935353;29;8963;-55
2020/12/25 05:35:14;;;;;;;;;37.33;28.33;;;;;4.94;94.52;99096.03;4935210;29;8856;-55
2020/12/25 05:37:41;;;;;;;;;25.67;23.67;;;;;4.91;94.27;99099.72;4958573;28;8854;-55
2020/12/25 05:40:10;;;;;;;;;28.67;27.00;;;;;4.91;94.14;99094.41;4939954;29;8868;-53
2020/12/25 05:42:48;;;;;;;;;22.67;21.00;;;;;4.78;94.50;99091.44;4935124;28;9653;-54
2020/12/25 05:45:20;;;;;;;;;33.67;25.00;;;;;4.90;95.33;99100.66;4934656;28;8861;-54
2020/12/25 05:48:04;;;;;;;;;26.33;24.33;;;;;4.87;94.72;99102.59;4956108;28;8855;-51
2020/12/25 05:50:31;;;;;;;;;25.00;18.00;;;;;4.88;94.59;99093.69;4918724;29;8885;-53
2020/12/25 05:52:58;;;;;;;;;27.67;24.00;;;;;4.88;94.58;99094.53;4935517;28;8883;-53
2020/12/25 05:55:26;;;;;;;;;31.67;30.00;;;;;5.17;93.08;99100.25;4934760;29;8852;-54
2020/12/25 05:57:55;;;;;;;;;36.33;28.33;;;;;4.98;92.97;99093.19;4937299;28;8892;-53
2020/12/25 06:00:25;;;;;;;;;53.50;42.50;;;;;5.00;92.89;99088.66;4936166;28;8865;-53
2020/12/25 06:02:56;;;;;;;;;29.67;25.33;;;;;4.92;93.63;99088.13;4934557;29;8857;-52
2020/12/25 06:05:25;;;;;;;;;35.33;28.00;;;;;4.87;93.57;99082.19;4922481;28;8973;-54
2020/12/25 06:08:00;;;;;;;;;31.67;28.00;;;;;4.69;93.52;99083.06;4934506;29;8867;-54
2020/12/25 06:10:29;;;;;;;;;46.67;36.00;;;;;4.66;93.69;99078.75;4932074;29;8857;-56
2020/12/25 06:12:57;;;;;;;;;63.50;47.25;;;;;4.82;93.70;99089.53;4938637;28;8858;-52
2020/12/25 06:15:32;;;;;;;;;52.50;39.00;;;;;4.83;93.55;99092.09;4918379;29;8848;-54
2020/12/25 06:18:30;;;;;;;;;47.00;27.33;;;;;4.71;94.21;99089.16;4934385;29;8860;-54
2020/12/25 06:21:11;;;;;;;;;32.00;24.00;;;;;4.58;93.75;99080.88;4930871;29;8868;-52
2020/12/25 06:23:41;;;;;;;;;42.33;33.00;;;;;4.56;94.65;99083.63;4945563;28;9099;-54
2020/12/25 06:26:09;;;;;;;;;41.00;31.33;;;;;4.67;94.67;99104.41;4915043;29;8926;-53
2020/12/25 06:28:42;;;;;;;;;39.67;28.67;;;;;4.58;94.66;99111.03;4921540;28;8860;-54
2020/12/25 06:31:43;;;;;;;;;31.00;25.00;;;;;4.43;94.81;99110.88;4949577;28;8866;-53
2020/12/25 06:34:11;;;;;;;;;35.67;25.00;;;;;4.38;94.67;99111.06;4936445;28;8866;-55
2020/12/25 06:36:45;;;;;;;;;27.00;25.00;;;;;4.36;95.48;99107.63;4934327;29;8893;-50
2020/12/25 06:39:15;;;;;;;;;28.67;21.00;;;;;4.28;95.85;99109.75;4941468;29;8987;-54
2020/12/25 06:41:42;;;;;;;;;33.67;24.33;;;;;4.20;95.53;99122.53;4916942;29;8885;-49
2020/12/25 06:44:17;;;;;;;;;32.33;24.67;;;;;4.09;96.17;99118.56;4934059;29;8844;-51
2020/12/25 06:46:53;;;;;;;;;21.67;21.67;;;;;4.14;96.09;99121.00;4933493;29;8879;-52
2020/12/25 06:49:21;;;;;;;;;41.00;27.67;;;;;4.01;95.78;99118.03;4934117;28;8876;-51
2020/12/25 06:51:49;;;;;;;;;30.00;23.67;;;;;3.97;95.68;99127.91;4933408;29;9637;-52
2020/12/25 06:54:22;;;;;;;;;27.00;23.67;;;;;3.97;96.59;99130.56;4934993;29;8869;-51
2020/12/25 06:56:56;;;;;;;;;34.67;29.00;;;;;4.02;95.73;99119.75;4938795;29;8861;-53
2020/12/25 06:59:24;;;;;;;;;30.67;20.67;;;;;3.76;95.50;99122.66;4923512;29;8879;-52
2020/12/25 07:01:52;;;;;;;;;36.25;28.75;;;;;3.94;95.69;99121.88;4916085;29;9664;-51
2020/12/25 07:04:25;;;;;;;;;36.00;31.00;;;;;3.89;95.97;99123.88;4933662;29;8861;-51
2020/12/25 07:07:00;;;;;;;;;56.75;45.75;;;;;3.91;95.44;99127.31;4933991;29;8851;-55
2020/12/25 07:09:46;;;;;;;;;75.50;57.25;;;;;4.03;95.77;99116.19;4933678;29;8883;-54
2020/12/25 07:12:24;;;;;;;;;79.25;60.50;;;;;3.93;95.56;99128.13;4933714;29;9586;-54
2020/12/25 07:14:50;;;;;;;;;66.50;49.50;;;;;3.81;95.59;99126.84;4940056;29;8861;-53
2020/12/25 07:17:17;;;;;;;;;59.50;48.25;;;;;4.21;94.90;99126.91;4931667;29;9489;-53
2020/12/25 07:19:44;;;;;;;;;66.75;51.25;;;;;3.93;95.70;99136.09;4936970;29;8892;-51
2020/12/25 07:22:12;;;;;;;;;65.00;46.75;;;;;4.21;95.01;99145.50;4937401;29;8882;-53
2020/12/25 07:24:40;;;;;;;;;59.25;45.75;;;;;3.80;94.89;99148.19;4933760;29;8877;-54
2020/12/25 07:27:12;;;;;;;;;47.00;39.50;;;;;3.84;94.98;99152.41;4942139;29;8983;-53
2020/12/25 07:29:40;;;;;;;;;56.75;46.00;;;;;3.96;95.69;99151.91;4944985;28;8866;-52
2020/12/25 07:32:12;;;;;;;;;57.00;41.00;;;;;3.64;95.01;99151.47;4933986;29;8912;-51
2020/12/25 07:34:40;;;;;;;;;64.50;49.00;;;;;3.59;95.80;99148.16;4924015;29;8847;-52
2020/12/25 07:37:10;;;;;;;;;64.50;45.25;;;;;3.79;95.30;99149.09;4936008;29;8876;-52
2020/12/25 07:39:37;;;;;;;;;75.75;56.75;;;;;3.97;95.25;99138.53;4940780;29;8892;-54
2020/12/25 07:42:07;;;;;;;;;54.25;42.75;;;;;3.74;94.11;99142.19;4933287;29;8923;-54
2020/12/25 07:44:34;;;;;;;;;88.75;63.75;;;;;3.64;95.25;99150.63;4933554;29;8868;-52
2020/12/25 07:47:00;;;;;;;;;95.00;69.75;;;;;3.66;94.77;99148.72;4940072;29;8968;-51
2020/12/25 07:49:30;;;;;;;;;66.50;49.25;;;;;4.00;94.72;99150.81;4941389;29;8862;-51
2020/12/25 07:51:59;;;;;;;;;68.00;48.00;;;;;3.69;95.02;99170.72;4941692;29;8955;-52
2020/12/25 07:54:26;;;;;;;;;75.25;51.00;;;;;3.88;94.46;99180.56;4933001;28;9598;-54
2020/12/25 07:56:54;;;;;;;;;58.00;46.50;;;;;3.67;94.03;99177.88;4943691;29;9023;-53
2020/12/25 07:59:21;;;;;;;;;73.00;52.75;;;;;3.82;94.54;99186.13;4956509;28;8845;-52
2020/12/25 08:01:48;;;;;;;;;67.25;47.25;;;;;3.85;94.67;99175.41;4943009;29;8865;-54
2020/12/25 08:04:15;;;;;;;;;77.25;56.25;;;;;3.80;94.80;99174.72;4944593;29;8880;-50
2020/12/25 08:06:42;;;;;;;;;71.25;50.50;;;;;3.91;93.75;99185.75;4936983;29;8880;-52
2020/12/25 08:09:11;;;;;;;;;62.50;47.25;;;;;4.09;94.13;99192.94;4929121;28;8866;-53
2020/12/25 08:11:40;;;;;;;;;63.75;48.00;;;;;3.97;93.22;99204.06;4944938;28;8893;-52
2020/12/25 08:14:10;;;;;;;;;67.25;46.75;;;;;3.97;94.07;99196.09;4936899;29;8857;-51
2020/12/25 08:16:43;;;;;;;;;66.75;50.25;;;;;4.15;94.28;99205.94;4946121;28;8872;-56
2020/12/25 08:19:10;;;;;;;;;89.50;64.75;;;;;4.26;93.51;99209.94;4946652;28;8847;-55
2020/12/25 08:21:39;;;;;;;;;85.00;64.25;;;;;4.08;92.27;99204.50;4944949;28;8885;-54
2020/12/25 08:24:08;;;;;;;;;4.25;4.25;;;;;4.29;92.02;99217.75;4944155;29;9795;-54
2020/12/25 08:26:40;;;;;;;;;57.00;44.50;;;;;4.30;91.41;99222.16;4948326;28;8869;-55
2020/12/25 08:29:09;;;;;;;;;54.75;45.25;;;;;4.33;91.27;99220.22;4942042;29;8886;-52
2020/12/25 08:31:39;;;;;;;;;49.00;41.25;;;;;4.24;91.51;99222.41;4944296;28;9599;-51
2020/12/25 08:34:13;;;;;;;;;66.25;48.75;;;;;4.29;91.85;99225.72;4942853;29;8864;-54
2020/12/25 08:36:40;;;;;;;;;79.50;58.75;;;;;4.20;91.54;99219.03;4939816;28;8849;-54
2020/12/25 08:39:08;;;;;;;;;67.67;48.00;;;;;4.23;91.61;99232.19;4947277;28;8929;-52
2020/12/25 08:41:35;;;;;;;;;45.75;40.00;;;;;4.27;92.79;99227.63;4939243;29;8889;-52
2020/12/25 08:44:11;;;;;;;;;83.25;55.25;;;;;4.15;92.05;99232.50;4936216;29;8860;-55
2020/12/25 08:46:39;;;;;;;;;108.25;80.50;;;;;4.24;91.91;99236.59;4958263;28;8916;-51
2020/12/25 08:49:07;;;;;;;;;98.00;70.50;;;;;4.23;91.17;99234.84;4936026;29;8911;-54
2020/12/25 08:51:40;;;;;;;;;62.50;45.25;;;;;4.44;90.62;99246.34;4943440;28;8886;-51
2020/12/25 08:54:07;;;;;;;;;69.75;51.00;;;;;4.21;91.79;99252.63;4939482;29;8867;-55
2020/12/25 08:56:37;;;;;;;;;80.00;60.25;;;;;4.39;92.20;99256.31;4943920;29;8975;-52
2020/12/25 08:59:08;;;;;;;;;69.00;52.75;;;;;4.34;91.32;99253.84;4940362;28;8856;-53
2020/12/25 09:01:38;;;;;;;;;70.25;51.50;;;;;4.48;90.22;99249.75;4947439;28;8874;-50
2020/12/25 09:04:13;;;;;;;;;82.00;58.25;;;;;4.53;90.84;99253.91;4942621;28;8960;-53
2020/12/25 09:06:40;;;;;;;;;83.25;61.25;;;;;4.47;89.78;99248.84;4938231;28;8878;-51
2020/12/25 09:09:25;;;;;;;;;75.75;57.50;;;;;4.61;89.67;99237.63;4941151;28;8858;-52
2020/12/25 09:11:52;;;;;;;;;65.00;47.75;;;;;4.67;89.32;99229.38;4946179;28;8913;-53
2020/12/25 09:14:19;;;;;;;;;81.75;60.00;;;;;4.60;90.16;99220.78;4934665;28;8986;-49
2020/12/25 09:16:46;;;;;;;;;62.50;47.75;;;;;4.63;90.72;99233.09;4943722;28;8904;-54
2020/12/25 09:19:12;;;;;;;;;66.00;48.25;;;;;4.82;89.53;99238.47;4937456;28;8877;-52
2020/12/25 09:21:40;;;;;;;;;66.00;46.25;;;;;4.79;89.09;99251.88;4924741;28;8902;-54
2020/12/25 09:24:07;;;;;;;;;58.25;45.75;;;;;4.73;89.39;99255.69;4945512;28;8936;-52
2020/12/25 09:26:34;;;;;;;;;51.50;43.25;;;;;4.71;90.01;99260.19;4943111;29;8884;-50
2020/12/25 09:29:01;;;;;;;;;55.00;42.75;;;;;4.69;90.24;99258.56;4949080;28;8846;-52
2020/12/25 09:31:28;;;;;;;;;59.75;48.50;;;;;4.68;90.09;99247.03;4942866;29;8861;-53
2020/12/25 09:33:54;;;;;;;;;44.33;38.00;;;;;4.55;90.18;99228.09;4941119;29;8849;-54
2020/12/25 09:36:21;;;;;;;;;49.67;40.33;;;;;4.55;89.37;99220.13;4939881;28;8975;-51
2020/12/25 09:38:48;;;;;;;;;73.75;53.00;;;;;4.68;89.50;99222.25;4942354;29;9563;-54
2020/12/25 09:41:15;;;;;;;;;62.00;46.75;;;;;4.78;88.94;99227.09;4928847;28;8909;-54
2020/12/25 09:43:42;;;;;;;;;49.00;41.67;;;;;4.70;89.13;99218.59;4946544;29;8857;-52
2020/12/25 09:46:10;;;;;;;;;49.00;41.25;;;;;4.82;89.46;99214.53;4940569;29;8885;-52
2020/12/25 09:48:37;;;;;;;;;51.25;41.00;;;;;4.92;89.29;99215.81;4940019;28;8877;-54
2020/12/25 09:51:05;;;;;;;;;53.00;39.67;;;;;4.87;89.38;99209.88;4922115;29;8867;-51
2020/12/25 09:53:31;;;;;;;;;64.75;48.75;;;;;4.91;88.14;99215.91;4944086;28;8837;-54
2020/12/25 09:55:58;;;;;;;;;48.00;42.33;;;;;4.94;88.46;99221.94;4944054;28;8869;-57
2020/12/25 09:58:25;;;;;;;;;54.33;40.00;;;;;4.89;89.19;99223.06;4942506;28;8862;-55
2020/12/25 10:00:53;;;;;;;;;51.67;42.67;;;;;4.99;88.83;99221.72;4941191;29;8865;-56
2020/12/25 10:03:20;;;;;;;;;49.00;40.67;;;;;5.06;88.82;99205.41;4941941;28;9065;-51
2020/12/25 10:05:47;;;;;;;;;43.33;38.00;;;;;5.13;87.88;99211.28;4946748;29;8873;-53
2020/12/25 10:08:14;;;;;;;;;38.67;32.67;;;;;5.20;87.83;99212.72;4940132;29;8872;-49
2020/12/25 10:10:40;;;;;;;;;43.00;33.33;;;;;5.05;87.66;99230.31;4936762;28;8880;-54
2020/12/25 10:13:08;;;;;;;;;51.33;34.67;;;;;5.22;88.08;99232.16;4940670;28;8965;-52
2020/12/25 10:15:35;;;;;;;;;44.00;33.33;;;;;5.09;86.90;99220.38;4940184;28;8963;-52
2020/12/25 10:18:02;;;;;;;;;54.00;39.33;;;;;5.05;87.23;99208.13;4941221;28;9576;-52
2020/12/25 10:20:29;;;;;;;;;42.67;36.00;;;;;5.27;86.09;99224.81;4940536;28;8888;-51
2020/12/25 10:22:56;;;;;;;;;36.67;33.67;;;;;5.21;86.24;99238.44;4943554;28;8870;-53
2020/12/25 10:25:23;;;;;;;;;49.67;36.67;;;;;5.13;85.28;99231.72;4937058;29;8872;-51
2020/12/25 10:27:49;;;;;;;;;40.00;31.00;;;;;5.29;85.57;99232.72;4943802;28;8895;-51
2020/12/25 10:30:16;;;;;;;;;47.00;35.67;;;;;5.41;85.85;99245.47;4938508;28;8862;-50
2020/12/25 10:32:43;;;;;;;;;51.00;39.67;;;;;5.27;85.75;99238.13;4943069;28;8866;-54
2020/12/25 10:35:11;;;;;;;;;56.67;43.67;;;;;5.27;85.22;99240.78;4930451;29;8856;-50
2020/12/25 10:37:38;;;;;;;;;49.33;38.33;;;;;5.30;85.40;99250.44;4940422;28;8858;-52
2020/12/25 10:40:25;;;;;;;;;56.50;47.00;;;;;5.36;85.31;99251.94;4944753;28;8892;-52
2020/12/25 10:42:52;;;;;;;;;53.67;44.00;;;;;5.25;86.04;99224.03;4941022;28;8952;-49
2020/12/25 10:45:19;;;;;;;;;48.33;40.33;;;;;5.33;85.58;99213.03;4937721;28;8858;-52
2020/12/25 10:47:47;;;;;;;;;44.33;35.67;;;;;5.01;86.94;99215.41;4942462;28;8882;-53
2020/12/25 10:50:14;;;;;;;;;45.33;36.00;;;;;5.10;86.02;99226.53;4940038;29;8864;-51
2020/12/25 10:52:41;;;;;;;;;40.00;35.00;;;;;5.17;85.55;99233.31;4940629;29;8893;-54
2020/12/25 10:55:08;;;;;;;;;43.33;36.67;;;;;4.96;86.45;99233.38;4941842;29;8856;-54
2020/12/25 10:57:34;;;;;;;;;66.00;45.50;;;;;5.03;86.17;99232.16;4939107;29;8865;-55
2020/12/25 11:00:02;;;;;;;;;39.33;32.67;;;;;4.96;85.45;99230.72;4934976;28;8860;-50
2020/12/25 11:02:29;;;;;;;;;50.67;36.67;;;;;4.98;86.95;99244.81;4939878;29;8871;-54
2020/12/25 11:04:55;;;;;;;;;34.67;28.00;;;;;4.95;85.17;99223.66;4940783;28;8842;-51
2020/12/25 11:07:22;;;;;;;;;47.00;42.33;;;;;5.18;86.25;99238.53;4943008;28;8854;-53
2020/12/25 11:09:49;;;;;;;;;39.67;34.00;;;;;5.16;84.66;99243.09;4935317;29;8971;-52
2020/12/25 11:12:16;;;;;;;;;45.67;31.33;;;;;5.18;83.89;99251.84;4932970;29;8971;-52
2020/12/25 11:14:43;;;;;;;;;38.33;32.67;;;;;5.02;84.43;99251.69;4940220;29;8872;-51
2020/12/25 11:17:09;;;;;;;;;38.33;32.00;;;;;5.18;84.45;99251.84;4940907;29;8868;-53
2020/12/25 11:19:37;;;;;;;;;44.00;34.67;;;;;5.21;83.74;99256.16;4940216;29;8883;-52
2020/12/25 11:22:05;;;;;;;;;52.00;42.00;;;;;5.24;83.12;99250.72;4947812;29;8874;-56
2020/12/25 11:24:32;;;;;;;;;40.33;32.00;;;;;5.25;83.58;99249.78;4942048;29;8877;-53
2020/12/25 11:26:59;;;;;;;;;56.75;43.00;;;;;5.22;84.32;99237.47;4933020;29;8867;-55
2020/12/25 11:29:25;;;;;;;;;45.67;36.33;;;;;5.21;85.10;99232.22;4939997;28;8936;-50
2020/12/25 11:31:52;;;;;;;;;48.00;36.67;;;;;5.27;84.22;99227.47;4945816;29;8878;-54
2020/12/25 11:34:21;;;;;;;;;46.00;41.67;;;;;5.40;84.33;99238.41;4928298;29;8885;-53
2020/12/25 11:36:47;;;;;;;;;45.00;38.33;;;;;5.36;83.63;99239.47;4940091;29;8866;-54
2020/12/25 11:39:14;;;;;;;;;44.67;36.33;;;;;5.44;83.61;99234.66;4943372;28;8851;-52
2020/12/25 11:41:41;;;;;;;;;51.67;38.67;;;;;5.28;83.74;99239.00;4921819;29;8933;-53